createdAt,value
2023-04-02T00:06:36.448Z,1.60
2023-04-02T00:16:37.983Z,1.67
2023-04-02T00:26:44.252Z,2.03
2023-04-02T00:36:47.160Z,3.00
2023-04-02T00:46:49.975Z,2.73
2023-04-02T00:56:57.072Z,2.77
2023-04-02T01:06:59.148Z,3.35
2023-04-02T01:17:27.385Z,3.80
2023-04-02T01:27:38.025Z,3.38
2023-04-02T01:37:46.921Z,2.57
2023-04-02T01:47:49.354Z,2.50
2023-04-02T01:57:53.446Z,3.00
2023-04-02T02:07:56.577Z,2.53
2023-04-02T02:18:02.230Z,2.72
2023-04-02T02:28:32.966Z,2.97
2023-04-02T02:38:34.400Z,3.70
2023-04-02T02:48:38.994Z,4.70
2023-04-02T02:58:40.715Z,6.60
2023-04-02T03:08:51.103Z,6.90
2023-04-02T03:19:16.920Z,7.87
2023-04-02T03:29:33.186Z,9.10
2023-04-02T03:39:43.471Z,10.57
2023-04-02T03:50:07.475Z,11.90
2023-04-02T04:00:22.480Z,11.40
2023-04-02T04:10:26.700Z,11.43
2023-04-02T04:20:40.200Z,12.80
2023-04-02T04:30:53.408Z,13.55
2023-04-02T04:40:58.738Z,12.47
2023-04-02T04:51:05.233Z,11.10
2023-04-02T05:01:24.148Z,11.83
2023-04-02T05:11:32.731Z,11.17
2023-04-02T05:21:36.967Z,11.95
2023-04-02T05:31:45.646Z,11.53
2023-04-02T05:41:47.473Z,12.88
2023-04-02T05:51:52.440Z,13.43
2023-04-02T06:02:02.248Z,18.20
2023-04-02T06:12:27.700Z,19.95
2023-04-02T06:22:38.867Z,25.13
2023-04-02T06:32:40.451Z,33.63
2023-04-02T06:42:44.235Z,31.37
2023-04-02T06:53:02.273Z,31.53
2023-04-02T07:03:08.530Z,33.83
2023-04-02T07:13:19.205Z,30.33
2023-04-02T07:23:20.705Z,32.55
2023-04-02T07:33:25.551Z,32.70
2023-04-02T07:43:27.096Z,29.77
2023-04-02T07:53:36.932Z,31.33
2023-04-02T08:03:38.590Z,34.10
2023-04-02T08:13:40.283Z,33.47
2023-04-02T08:23:41.804Z,33.53
2023-04-02T08:33:43.465Z,33.63
2023-04-02T08:44:07.732Z,34.95
2023-04-02T08:54:31.559Z,32.33
2023-04-02T09:04:33.912Z,33.72
2023-04-02T09:15:00.597Z,30.30
2023-04-02T09:25:04.643Z,30.87
2023-04-02T09:35:25.550Z,27.83
2023-04-02T09:45:27.989Z,22.57
2023-04-02T09:55:29.842Z,20.40
2023-04-02T10:05:40.707Z,16.10
2023-04-02T10:16:11.608Z,13.73
2023-04-02T10:26:50.471Z,11.45
2023-04-02T10:37:00.100Z,15.13
2023-04-02T10:47:35.516Z,15.98
2023-04-02T10:57:39.827Z,17.40
2023-04-02T11:08:20.045Z,17.67
2023-04-02T11:18:30.754Z,14.43
2023-04-02T11:28:32.716Z,12.33
2023-04-02T11:38:46.274Z,13.02
2023-04-02T11:48:47.813Z,12.43
2023-04-02T11:59:14.405Z,11.73
2023-04-02T12:09:23.603Z,11.18
2023-04-02T12:19:26.635Z,12.87
2023-04-02T12:29:29.107Z,10.55
2023-04-02T12:39:32.485Z,6.23
2023-04-02T12:49:39.843Z,6.00
2023-04-02T12:59:42.739Z,8.23
2023-04-02T13:09:50.381Z,9.37
2023-04-02T13:19:51.909Z,9.32
2023-04-02T13:29:53.533Z,6.63
2023-04-02T13:39:54.976Z,6.53
2023-04-02T13:49:56.542Z,5.05
2023-04-02T13:59:58.094Z,6.43
2023-04-02T14:10:13.798Z,6.93
2023-04-02T14:20:29.780Z,9.07
2023-04-02T14:31:09.241Z,8.33
2023-04-02T14:41:22.376Z,3.88
2023-04-02T14:51:30.432Z,1.93
2023-04-02T15:01:37.941Z,1.27
2023-04-02T15:11:46.491Z,1.27
2023-04-02T15:22:15.269Z,1.30
2023-04-02T15:32:29.993Z,2.78
2023-04-02T15:42:37.845Z,4.10
2023-04-02T15:53:01.541Z,2.85
2023-04-02T16:03:37.796Z,0.90
2023-04-02T16:13:41.729Z,0.47
2023-04-02T16:23:43.543Z,0.30
2023-04-02T16:33:48.060Z,0.37
2023-04-02T16:43:59.893Z,0.40
2023-04-02T16:54:31.035Z,0.30
2023-04-02T17:04:51.314Z,0.30
2023-04-02T17:14:59.474Z,0.32
2023-04-02T17:25:04.384Z,0.30
2023-04-02T17:35:17.824Z,0.80
2023-04-02T17:45:37.435Z,0.43
2023-04-02T17:56:06.179Z,1.00
2023-04-02T18:06:15.089Z,0.60
2023-04-02T18:16:28.615Z,0.80
2023-04-02T18:26:48.167Z,1.45
2023-04-02T18:36:58.763Z,1.23
2023-04-02T18:47:15.409Z,1.20
2023-04-02T18:57:28.652Z,2.22
2023-04-02T19:07:35.721Z,2.60
2023-04-02T19:17:41.703Z,2.50
2023-04-02T19:27:55.074Z,2.40
2023-04-02T19:38:16.926Z,2.80
2023-04-02T19:48:24.516Z,3.92
2023-04-02T19:58:31.928Z,3.70
2023-04-02T20:08:33.724Z,4.03
2023-04-02T20:18:35.327Z,2.50
2023-04-02T20:28:36.873Z,1.63
2023-04-02T20:38:38.787Z,1.27
2023-04-02T20:48:40.344Z,0.87
2023-04-02T20:58:42.632Z,1.08
2023-04-02T21:08:45.250Z,0.90
2023-04-02T21:18:48.526Z,1.00
2023-04-02T21:28:49.982Z,0.93
2023-04-02T21:38:56.906Z,0.90
2023-04-02T21:48:59.584Z,0.90
2023-04-02T21:59:01.900Z,0.93
2023-04-02T22:09:06.865Z,0.77
2023-04-02T22:19:12.474Z,1.10
2023-04-02T22:29:14.796Z,0.80
2023-04-02T22:39:16.390Z,1.10
2023-04-02T22:49:17.901Z,1.10
2023-04-02T22:59:19.347Z,0.63
2023-04-02T23:09:20.914Z,0.70
2023-04-02T23:19:22.411Z,1.20
2023-04-02T23:29:24.005Z,0.57
2023-04-02T23:39:25.673Z,0.80
2023-04-02T23:49:27.889Z,0.83
2023-04-02T23:59:29.409Z,0.90
